createdAt,value
2023-03-06T00:01:00.480Z,98460.84
2023-03-06T00:03:28.036Z,98460.84
2023-03-06T00:05:57.172Z,98458.72
2023-03-06T00:08:25.202Z,98457.47
2023-03-06T00:10:52.017Z,98447.72
2023-03-06T00:13:21.475Z,98455.22
2023-03-06T00:15:49.003Z,98448.81
2023-03-06T00:18:15.983Z,98445.75
2023-03-06T00:20:44.265Z,98447.56
2023-03-06T00:23:11.224Z,98444.44
2023-03-06T00:25:38.790Z,98443.41
2023-03-06T00:28:06.097Z,98439.28
2023-03-06T00:30:33.019Z,98438.50
2023-03-06T00:32:59.622Z,98442.88
2023-03-06T00:35:26.315Z,98439.34
2023-03-06T00:37:52.908Z,98435.47
2023-03-06T00:40:21.058Z,98433.13
2023-03-06T00:42:48.568Z,98432.81
2023-03-06T00:45:15.415Z,98430.47
2023-03-06T00:47:42.269Z,98425.34
2023-03-06T00:50:09.878Z,98424.56
2023-03-06T00:52:36.593Z,98423.53
2023-03-06T00:55:03.560Z,98420.19
2023-03-06T00:57:30.124Z,98421.97
2023-03-06T00:59:57.295Z,98415.56
2023-03-06T01:02:24.091Z,98418.16
2023-03-06T01:04:50.702Z,98415.56
2023-03-06T01:07:17.354Z,98414.31
2023-03-06T01:09:43.946Z,98409.66
2023-03-06T01:12:10.615Z,98410.91
2023-03-06T01:14:37.381Z,98401.63
2023-03-06T01:17:04.055Z,98405.47
2023-03-06T01:19:30.800Z,98395.94
2023-03-06T01:21:57.561Z,98394.91
2023-03-06T01:24:25.748Z,98391.03
2023-03-06T01:26:56.283Z,98393.84
2023-03-06T01:29:22.953Z,98384.56
2023-03-06T01:31:49.577Z,98386.91
2023-03-06T01:34:16.242Z,98384.56
2023-03-06T01:36:42.899Z,98381.50
2023-03-06T01:39:10.592Z,98375.28
2023-03-06T01:41:37.236Z,98374.97
2023-03-06T01:44:03.917Z,98373.13
2023-03-06T01:46:30.707Z,98376.78
2023-03-06T01:48:59.336Z,98364.09
2023-03-06T01:51:31.079Z,98369.72
2023-03-06T01:54:01.892Z,98367.97
2023-03-06T01:56:28.823Z,98366.19
2023-03-06T01:58:56.618Z,98364.88
2023-03-06T02:01:23.590Z,98366.91
2023-03-06T02:03:51.274Z,98361.22
2023-03-06T02:06:21.651Z,98363.25
2023-03-06T02:08:51.611Z,98359.06
2023-03-06T02:11:21.884Z,98357.72
2023-03-06T02:13:49.708Z,98360.06
2023-03-06T02:16:23.664Z,98354.44
2023-03-06T02:18:51.511Z,98356.31
2023-03-06T02:21:27.349Z,98355.81
2023-03-06T02:24:09.196Z,98347.56
2023-03-06T02:26:37.687Z,98353.78
2023-03-06T02:29:05.370Z,98345.59
2023-03-06T02:31:34.181Z,98341.81
2023-03-06T02:34:08.438Z,98341.28
2023-03-06T02:36:40.671Z,98342.53
2023-03-06T02:39:08.052Z,98337.88
2023-03-06T02:41:34.998Z,98339.91
2023-03-06T02:44:01.877Z,98334.47
2023-03-06T02:46:28.803Z,98333.69
2023-03-06T02:48:56.296Z,98336.50
2023-03-06T02:51:23.453Z,98330.88
2023-03-06T02:53:50.409Z,98325.19
2023-03-06T02:56:17.764Z,98323.94
2023-03-06T02:58:44.356Z,98320.88
2023-03-06T03:01:11.077Z,98319.56
2023-03-06T03:03:38.518Z,98316.22
2023-03-06T03:06:06.424Z,98320.28
2023-03-06T03:08:34.909Z,98318.19
2023-03-06T03:11:04.022Z,98315.31
2023-03-06T03:13:37.992Z,98305.72
2023-03-06T03:16:14.115Z,98306.16
2023-03-06T03:18:44.319Z,98313.81
2023-03-06T03:21:13.496Z,98303.69
2023-03-06T03:23:40.468Z,98302.84
2023-03-06T03:26:13.284Z,98298.16
2023-03-06T03:28:43.668Z,98291.94
2023-03-06T03:31:13.484Z,98289.91
2023-03-06T03:33:41.081Z,98291.16
2023-03-06T03:36:08.913Z,98294.44
2023-03-06T03:38:39.505Z,98289.47
2023-03-06T03:41:06.474Z,98293.38
2023-03-06T03:43:33.622Z,98279.09
2023-03-06T03:46:00.902Z,98279.56
2023-03-06T03:48:28.239Z,98273.88
2023-03-06T03:50:55.927Z,98275.38
2023-03-06T03:53:24.125Z,98270.47
2023-03-06T03:55:50.865Z,98269.91
2023-03-06T03:58:20.084Z,98257.31
2023-03-06T04:00:47.868Z,98260.41
2023-03-06T04:03:14.944Z,98254.97
2023-03-06T04:05:44.491Z,98255.53
2023-03-06T04:08:14.492Z,98252.16
2023-03-06T04:10:43.884Z,98253.19
2023-03-06T04:13:12.201Z,98247.81
2023-03-06T04:15:42.504Z,98249.06
2023-03-06T04:18:10.151Z,98245.41
2023-03-06T04:20:37.000Z,98235.13
2023-03-06T04:23:04.622Z,98237.69
2023-03-06T04:25:32.036Z,98230.22
2023-03-06T04:28:01.220Z,98234.03
2023-03-06T04:30:28.938Z,98236.84
2023-03-06T04:32:55.820Z,98227.66
2023-03-06T04:35:22.591Z,98234.41
2023-03-06T04:37:56.478Z,98233.41
2023-03-06T04:40:28.832Z,98229.03
2023-03-06T04:42:57.103Z,98223.97
2023-03-06T04:45:24.855Z,98222.94
2023-03-06T04:47:51.925Z,98227.06
2023-03-06T04:50:19.440Z,98229.09
2023-03-06T04:52:46.508Z,98225.53
2023-03-06T04:55:15.136Z,98217.09
2023-03-06T04:57:43.740Z,98214.75
2023-03-06T05:00:19.471Z,98211.41
2023-03-06T05:02:46.700Z,98208.06
2023-03-06T05:05:14.125Z,98210.56
2023-03-06T05:07:41.371Z,98212.59
2023-03-06T05:10:19.333Z,98213.63
2023-03-06T05:12:45.972Z,98206.94
2023-03-06T05:15:13.639Z,98201.72
2023-03-06T05:17:40.472Z,98207.34
2023-03-06T05:20:09.722Z,98203.69
2023-03-06T05:22:36.773Z,98200.81
2023-03-06T05:25:04.866Z,98208.22
2023-03-06T05:27:31.996Z,98206.41
2023-03-06T05:29:58.737Z,98204.31
2023-03-06T05:32:25.398Z,98204.25
2023-03-06T05:34:52.120Z,98201.91
2023-03-06T05:37:18.782Z,98196.78
2023-03-06T05:39:45.655Z,98204.25
2023-03-06T05:42:12.282Z,98196.78
2023-03-06T05:44:38.949Z,98203.00
2023-03-06T05:47:05.772Z,98194.97
2023-03-06T05:49:34.267Z,98193.50
2023-03-06T05:52:03.947Z,98188.75
2023-03-06T05:54:34.831Z,98193.09
2023-03-06T05:57:01.766Z,98189.75
2023-03-06T05:59:29.059Z,98191.00
2023-03-06T06:01:56.529Z,98184.84
2023-03-06T06:04:26.058Z,98192.56
2023-03-06T06:06:58.562Z,98194.81
2023-03-06T06:09:27.072Z,98194.34
2023-03-06T06:11:56.104Z,98197.47
2023-03-06T06:14:23.260Z,98200.03
2023-03-06T06:16:51.560Z,98195.66
2023-03-06T06:19:20.952Z,98192.88
2023-03-06T06:21:50.413Z,98202.44
2023-03-06T06:24:19.148Z,98202.44
2023-03-06T06:26:46.859Z,98202.19
2023-03-06T06:29:13.748Z,98197.06
2023-03-06T06:31:40.601Z,98194.31
2023-03-06T06:34:07.986Z,98194.31
2023-03-06T06:36:34.647Z,98194.91
2023-03-06T06:39:01.301Z,98193.19
2023-03-06T06:41:46.948Z,98203.09
2023-03-06T06:44:16.210Z,98204.16
2023-03-06T06:49:32.302Z,98197.88
2023-03-06T06:51:59.300Z,98197.72
2023-03-06T06:54:26.685Z,98192.13
2023-03-06T06:56:53.766Z,98199.38
2023-03-06T06:59:20.705Z,98198.41
2023-03-06T07:01:47.432Z,98191.47
2023-03-06T07:04:14.671Z,98190.50
2023-03-06T07:06:42.365Z,98186.19
2023-03-06T07:09:09.242Z,98189.59
2023-03-06T07:11:37.846Z,98181.16
2023-03-06T07:14:04.461Z,98187.84
2023-03-06T07:16:31.075Z,98185.81
2023-03-06T07:18:57.719Z,98190.47
2023-03-06T07:21:24.360Z,98178.91
2023-03-06T07:23:50.975Z,98181.28
2023-03-06T07:26:17.571Z,98180.84
2023-03-06T07:28:52.431Z,98175.97
2023-03-06T07:31:24.875Z,98180.88
2023-03-06T07:33:54.421Z,98178.88
2023-03-06T07:36:23.084Z,98175.81
2023-03-06T07:38:50.078Z,98176.84
2023-03-06T07:41:20.455Z,98169.88
2023-03-06T07:43:48.607Z,98176.38
2023-03-06T07:46:16.405Z,98174.38
2023-03-06T07:48:43.220Z,98170.81
2023-03-06T07:51:16.239Z,98172.41
2023-03-06T07:53:43.458Z,98182.75
2023-03-06T07:56:11.716Z,98172.75
2023-03-06T07:58:40.001Z,98175.34
2023-03-06T08:01:12.671Z,98183.34
2023-03-06T08:03:39.696Z,98185.19
2023-03-06T08:06:13.892Z,98182.16
2023-03-06T08:08:42.438Z,98183.50
2023-03-06T08:11:11.795Z,98179.91
2023-03-06T08:13:38.996Z,98186.06
2023-03-06T08:16:06.395Z,98180.94
2023-03-06T08:18:33.791Z,98183.50
2023-03-06T08:21:06.398Z,98185.13
2023-03-06T08:23:34.178Z,98179.22
2023-03-06T08:26:06.506Z,98180.81
2023-03-06T08:28:33.657Z,98178.06
2023-03-06T08:31:12.433Z,98187.59
2023-03-06T08:33:40.852Z,98187.53
2023-03-06T08:36:07.885Z,98192.66
2023-03-06T08:38:34.461Z,98188.03
2023-03-06T08:41:01.222Z,98193.94
2023-03-06T08:43:28.106Z,98193.13
2023-03-06T08:45:56.431Z,98190.00
2023-03-06T08:48:23.319Z,98185.09
2023-03-06T08:50:50.425Z,98187.91
2023-03-06T08:53:17.510Z,98190.72
2023-03-06T08:55:44.444Z,98195.13
2023-03-06T08:58:11.184Z,98195.41
2023-03-06T09:00:38.937Z,98190.56
2023-03-06T09:03:06.112Z,98189.31
2023-03-06T09:05:32.881Z,98191.19
2023-03-06T09:07:59.593Z,98190.47
2023-03-06T09:10:27.464Z,98187.63
2023-03-06T09:12:55.177Z,98200.78
2023-03-06T09:15:23.440Z,98194.81
2023-03-06T09:17:50.925Z,98192.75
2023-03-06T09:20:18.537Z,98190.91
2023-03-06T09:22:47.888Z,98193.22
2023-03-06T09:25:20.140Z,98189.34
2023-03-06T09:27:51.410Z,98197.84
2023-03-06T09:30:22.478Z,98190.59
2023-03-06T09:32:49.102Z,98190.31
2023-03-06T09:35:17.945Z,98193.38
2023-03-06T09:37:45.450Z,98182.31
2023-03-06T09:40:20.869Z,98179.25
2023-03-06T09:42:47.509Z,98187.34
2023-03-06T09:45:14.331Z,98189.78
2023-03-06T09:47:47.436Z,98185.44
2023-03-06T09:50:29.525Z,98182.13
2023-03-06T09:53:23.864Z,98171.75
2023-03-06T09:56:00.870Z,98169.63
2023-03-06T09:58:30.089Z,98174.00
2023-03-06T10:01:04.039Z,98170.81
2023-03-06T10:03:50.863Z,98169.34
2023-03-06T10:06:32.455Z,98162.88
2023-03-06T10:09:24.665Z,98167.53
2023-03-06T10:12:06.595Z,98159.84
2023-03-06T10:14:57.851Z,98164.78
2023-03-06T10:17:26.231Z,98163.50
2023-03-06T10:19:52.944Z,98156.00
2023-03-06T10:22:48.071Z,98152.91
2023-03-06T10:25:37.226Z,98154.72
2023-03-06T10:28:13.848Z,98151.63
2023-03-06T10:30:48.946Z,98154.97
2023-03-06T10:33:28.428Z,98155.50
2023-03-06T10:35:56.360Z,98157.81
2023-03-06T10:38:29.983Z,98152.13
2023-03-06T10:41:11.705Z,98165.28
2023-03-06T10:43:39.415Z,98158.34
2023-03-06T10:46:08.510Z,98157.56
2023-03-06T10:48:36.746Z,98154.19
2023-03-06T10:51:19.050Z,98158.59
2023-03-06T10:54:00.432Z,98156.28
2023-03-06T10:56:30.081Z,98150.63
2023-03-06T10:59:06.843Z,98154.97
2023-03-06T11:01:34.128Z,98151.38
2023-03-06T11:04:21.204Z,98146.72
2023-03-06T11:06:48.393Z,98156.25
2023-03-06T11:09:24.279Z,98154.41
2023-03-06T11:11:51.892Z,98145.06
2023-03-06T11:14:22.874Z,98159.75
2023-03-06T11:16:54.837Z,98158.16
2023-03-06T11:19:27.200Z,98154.50
2023-03-06T11:22:01.920Z,98152.41
2023-03-06T11:24:40.544Z,98160.63
2023-03-06T11:27:34.462Z,98162.88
2023-03-06T11:30:10.429Z,98155.34
2023-03-06T11:32:46.519Z,98148.16
2023-03-06T11:35:20.854Z,98149.72
2023-03-06T11:38:00.212Z,98140.25
2023-03-06T11:40:48.372Z,98137.72
2023-03-06T11:43:42.312Z,98139.59
2023-03-06T11:46:28.208Z,98137.06
2023-03-06T11:49:17.151Z,98131.16
2023-03-06T11:51:51.077Z,98133.50
2023-03-06T11:54:17.747Z,98133.78
2023-03-06T11:56:47.293Z,98122.41
2023-03-06T11:59:47.974Z,98119.59
2023-03-06T12:02:20.505Z,98117.28
2023-03-06T12:04:57.201Z,98111.84
2023-03-06T12:08:05.801Z,98110.03
2023-03-06T12:10:51.711Z,98111.34
2023-03-06T12:13:18.843Z,98094.28
2023-03-06T12:15:48.184Z,98101.25
2023-03-06T12:18:21.893Z,98109.50
2023-03-06T12:21:14.977Z,98102.28
2023-03-06T12:23:41.529Z,98094.53
2023-03-06T12:26:26.847Z,98097.63
2023-03-06T12:28:59.293Z,98091.63
2023-03-06T12:31:35.869Z,98093.91
2023-03-06T12:34:21.061Z,98086.69
2023-03-06T12:37:16.075Z,98086.75
2023-03-06T12:39:55.385Z,98089.59
2023-03-06T12:42:46.495Z,98085.72
2023-03-06T12:45:34.252Z,98088.28
2023-03-06T12:48:02.031Z,98079.47
2023-03-06T12:50:38.424Z,98076.34
2023-03-06T12:53:12.089Z,98081.78
2023-03-06T12:55:43.921Z,98077.66
2023-03-06T12:58:31.799Z,98077.19
2023-03-06T13:01:20.800Z,98076.16
2023-03-06T13:04:30.495Z,98064.78
2023-03-06T13:07:30.830Z,98070.72
2023-03-06T13:09:57.681Z,98075.38
2023-03-06T13:12:55.568Z,98071.75
2023-03-06T13:16:03.420Z,98068.13
2023-03-06T13:18:33.005Z,98068.38
2023-03-06T13:20:59.646Z,98062.94
2023-03-06T13:23:29.303Z,98063.22
2023-03-06T13:25:57.833Z,98059.34
2023-03-06T13:28:48.598Z,98060.34
2023-03-06T13:31:27.793Z,98070.09
2023-03-06T13:34:01.744Z,98070.34
2023-03-06T13:36:39.470Z,98076.19
2023-03-06T13:39:10.182Z,98074.47
2023-03-06T13:41:43.041Z,98065.63
2023-03-06T13:44:24.940Z,98068.16
2023-03-06T13:47:16.969Z,98065.84
2023-03-06T13:49:46.565Z,98060.94
2023-03-06T13:52:43.185Z,98062.47
2023-03-06T13:55:26.637Z,98058.50
2023-03-06T13:57:59.267Z,98049.84
2023-03-06T14:01:07.421Z,98046.81
2023-03-06T14:03:49.424Z,98048.75
2023-03-06T14:06:34.445Z,98045.41
2023-03-06T14:09:06.728Z,98043.38
2023-03-06T14:11:36.329Z,98036.47
2023-03-06T14:14:03.686Z,98044.56
2023-03-06T14:16:50.045Z,98044.81
2023-03-06T14:19:18.669Z,98039.25
2023-03-06T14:21:45.251Z,98040.88
2023-03-06T14:24:17.594Z,98046.31
2023-03-06T14:26:48.650Z,98039.84
2023-03-06T14:29:26.407Z,98045.03
2023-03-06T14:31:56.127Z,98047.25
2023-03-06T14:34:26.885Z,98044.22
2023-03-06T14:36:56.033Z,98047.63
2023-03-06T14:39:37.588Z,98042.75
2023-03-06T14:42:26.849Z,98037.31
2023-03-06T14:45:15.937Z,98039.66
2023-03-06T14:47:43.317Z,98032.66
2023-03-06T14:50:30.503Z,98037.56
2023-03-06T14:53:16.970Z,98040.19
2023-03-06T14:55:56.633Z,98037.31
2023-03-06T14:58:48.234Z,98042.47
2023-03-06T15:01:15.589Z,98040.13
2023-03-06T15:03:51.172Z,98030.84
2023-03-06T15:06:20.039Z,98035.50
2023-03-06T15:08:52.087Z,98032.13
2023-03-06T15:11:18.862Z,98030.09
2023-03-06T15:14:00.743Z,98032.19
2023-03-06T15:16:30.094Z,98028.84
2023-03-06T15:19:01.124Z,98036.59
2023-03-06T15:21:36.154Z,98041.50
2023-03-06T15:24:31.576Z,98031.44
2023-03-06T15:27:02.685Z,98028.09
2023-03-06T15:29:29.532Z,98020.63
2023-03-06T15:32:37.080Z,98019.06
2023-03-06T15:35:37.893Z,98030.44
2023-03-06T15:38:29.856Z,98030.72
2023-03-06T15:40:58.682Z,98026.84
2023-03-06T15:43:26.091Z,98025.56
2023-03-06T15:45:59.108Z,98024.00
2023-03-06T15:48:25.835Z,98022.69
2023-03-06T15:50:52.610Z,98039.25
2023-03-06T15:53:20.364Z,98047.78
2023-03-06T15:55:47.587Z,98050.34
2023-03-06T15:58:17.423Z,98049.59
2023-03-06T16:00:44.972Z,98049.38
2023-03-06T16:03:12.176Z,98046.28
2023-03-06T16:05:38.935Z,98056.84
2023-03-06T16:08:06.274Z,98064.06
2023-03-06T16:10:43.816Z,98070.19
2023-03-06T16:13:20.010Z,98066.78
2023-03-06T16:15:49.347Z,98072.66
2023-03-06T16:18:17.036Z,98076.22
2023-03-06T16:20:43.858Z,98073.28
2023-03-06T16:23:10.861Z,98076.41
2023-03-06T16:25:43.188Z,98076.81
2023-03-06T16:28:15.471Z,98071.88
2023-03-06T16:30:43.817Z,98080.91
2023-03-06T16:33:11.939Z,98078.31
2023-03-06T16:35:39.756Z,98074.75
2023-03-06T16:38:06.392Z,98071.13
2023-03-06T16:40:38.289Z,98071.88
2023-03-06T16:43:05.394Z,98074.94
2023-03-06T16:45:37.249Z,98074.94
2023-03-06T16:48:04.664Z,98070.13
2023-03-06T16:50:38.704Z,98067.00
2023-03-06T16:53:06.938Z,98069.06
2023-03-06T16:55:33.714Z,98064.66
2023-03-06T16:58:00.396Z,98065.69
2023-03-06T17:00:31.069Z,98066.44
2023-03-06T17:02:57.906Z,98061.81
2023-03-06T17:05:24.502Z,98068.19
2023-03-06T17:07:51.367Z,98057.91
2023-03-06T17:10:21.826Z,98061.78
2023-03-06T17:12:49.147Z,98068.50
2023-03-06T17:15:15.810Z,98070.53
2023-03-06T17:17:42.650Z,98066.94
2023-03-06T17:20:12.549Z,98069.50
2023-03-06T17:22:39.374Z,98070.00
2023-03-06T17:25:08.061Z,98070.56
2023-03-06T17:27:35.748Z,98077.50
2023-03-06T17:30:02.841Z,98075.97
2023-03-06T17:32:29.549Z,98081.63
2023-03-06T17:34:56.371Z,98082.09
2023-03-06T17:37:23.619Z,98085.16
2023-03-06T17:39:50.241Z,98088.00
2023-03-06T17:42:17.062Z,98098.06
2023-03-06T17:44:43.670Z,98095.97
2023-03-06T17:47:10.905Z,98101.38
2023-03-06T17:49:37.930Z,98103.69
2023-03-06T17:52:05.775Z,98102.19
2023-03-06T17:54:33.217Z,98108.66
2023-03-06T17:57:03.257Z,98109.41
2023-03-06T17:59:30.499Z,98113.53
2023-03-06T18:01:58.038Z,98112.28
2023-03-06T18:04:25.670Z,98108.94
2023-03-06T18:06:52.589Z,98112.31
2023-03-06T18:09:19.410Z,98109.22
2023-03-06T18:11:46.061Z,98108.72
2023-03-06T18:14:12.628Z,98106.16
2023-03-06T18:16:39.256Z,98107.94
2023-03-06T18:19:05.892Z,98107.16
2023-03-06T18:21:32.587Z,98108.19
2023-03-06T18:23:59.178Z,98111.75
2023-03-06T18:26:28.302Z,98110.47
2023-03-06T18:29:01.381Z,98114.31
2023-03-06T18:31:34.676Z,98109.66
2023-03-06T18:34:07.619Z,98111.75
2023-03-06T18:36:34.987Z,98122.28
2023-03-06T18:39:03.746Z,98119.19
2023-03-06T18:41:31.453Z,98120.72
2023-03-06T18:44:00.073Z,98124.84
2023-03-06T18:46:31.275Z,98126.66
2023-03-06T18:48:58.280Z,98120.97
2023-03-06T18:51:25.634Z,98121.25
2023-03-06T18:53:52.334Z,98120.50
2023-03-06T18:56:21.825Z,98123.06
2023-03-06T18:58:50.195Z,98121.75
2023-03-06T19:01:17.560Z,98119.44
2023-03-06T19:03:44.626Z,98124.09
2023-03-06T19:06:13.511Z,98123.06
2023-03-06T19:08:40.337Z,98123.34
2023-03-06T19:11:12.115Z,98120.25
2023-03-06T19:13:39.482Z,98127.19
2023-03-06T19:16:06.814Z,98126.41
2023-03-06T19:18:34.013Z,98132.88
2023-03-06T19:21:09.443Z,98128.50
2023-03-06T19:23:36.515Z,98126.44
2023-03-06T19:26:03.163Z,98124.13
2023-03-06T19:28:29.862Z,98127.44
2023-03-06T19:30:57.018Z,98125.38
2023-03-06T19:33:23.618Z,98126.16
2023-03-06T19:35:50.230Z,98130.78
2023-03-06T19:38:16.899Z,98122.28
2023-03-06T19:40:50.586Z,98117.63
2023-03-06T19:43:17.201Z,98119.66
2023-03-06T19:45:44.550Z,98115.00
2023-03-06T19:48:12.498Z,98109.09
2023-03-06T19:50:40.430Z,98106.53
2023-03-06T19:53:07.848Z,98108.09
2023-03-06T19:55:34.762Z,98111.22
2023-03-06T19:58:01.397Z,98109.38
2023-03-06T20:00:28.946Z,98111.41
2023-03-06T20:02:55.985Z,98111.91
2023-03-06T20:05:22.957Z,98112.94
2023-03-06T20:07:49.849Z,98114.19
2023-03-06T20:10:16.794Z,98109.53
2023-03-06T20:12:43.550Z,98109.25
2023-03-06T20:15:11.078Z,98108.72
2023-03-06T20:17:40.456Z,98122.59
2023-03-06T20:20:09.392Z,98109.44
2023-03-06T20:22:37.095Z,98109.69
2023-03-06T20:25:04.705Z,98109.69
2023-03-06T20:27:31.308Z,98106.88
2023-03-06T20:29:57.996Z,98106.34
2023-03-06T20:32:24.595Z,98099.59
2023-03-06T20:34:51.281Z,98101.34
2023-03-06T20:37:18.073Z,98110.28
2023-03-06T20:39:44.690Z,98105.50
2023-03-06T20:42:11.351Z,98097.50
2023-03-06T20:44:38.522Z,98100.06
2023-03-06T20:47:05.412Z,98106.53
2023-03-06T20:49:32.141Z,98104.38
2023-03-06T20:51:58.759Z,98097.94
2023-03-06T20:54:25.560Z,98102.59
2023-03-06T20:56:52.128Z,98101.56
2023-03-06T20:59:18.858Z,98092.84
2023-03-06T21:01:47.910Z,98089.31
2023-03-06T21:04:15.720Z,98082.72
2023-03-06T21:06:46.514Z,98082.22
2023-03-06T21:09:16.055Z,98088.69
2023-03-06T21:11:43.130Z,98084.56
2023-03-06T21:14:12.271Z,98080.47
2023-03-06T21:16:38.997Z,98082.66
2023-03-06T21:19:06.244Z,98077.84
2023-03-06T21:21:34.768Z,98062.41
2023-03-06T21:24:02.354Z,98061.63
2023-03-06T21:26:31.101Z,98064.69
2023-03-06T21:29:00.850Z,98055.72
2023-03-06T21:31:28.723Z,98054.97
2023-03-06T21:33:56.592Z,98052.91
2023-03-06T21:36:23.370Z,98050.28
2023-03-06T21:38:52.179Z,98055.13
2023-03-06T21:41:20.190Z,98052.53
2023-03-06T21:43:47.276Z,98053.53
2023-03-06T21:46:14.168Z,98056.31
2023-03-06T21:48:41.025Z,98049.81
2023-03-06T21:51:10.483Z,98048.50
2023-03-06T21:53:37.835Z,98051.03
2023-03-06T21:56:05.174Z,98047.88
2023-03-06T21:58:32.227Z,98043.22
2023-03-06T22:00:59.433Z,98039.50
2023-03-06T22:03:26.436Z,98040.75
2023-03-06T22:05:53.143Z,98037.59
2023-03-06T22:08:28.091Z,98038.09
2023-03-06T22:10:54.650Z,98040.13
2023-03-06T22:13:22.207Z,98039.34
2023-03-06T22:15:53.055Z,98038.34
2023-03-06T22:18:20.262Z,98028.06
2023-03-06T22:20:47.267Z,98035.22
2023-03-06T22:23:14.214Z,98030.09
2023-03-06T22:25:40.846Z,98023.59
2023-03-06T22:28:07.716Z,98022.56
2023-03-06T22:30:34.364Z,98031.59
2023-03-06T22:33:01.086Z,98019.81
2023-03-06T22:35:27.762Z,98023.94
2023-03-06T22:37:54.360Z,98017.53
2023-03-06T22:40:20.967Z,98014.44
2023-03-06T22:42:47.679Z,98016.47
2023-03-06T22:45:14.401Z,98016.47
2023-03-06T22:47:40.975Z,98006.22
2023-03-06T22:50:08.550Z,98005.94
2023-03-06T22:52:35.448Z,98013.09
2023-03-06T22:55:02.055Z,98012.09
2023-03-06T22:57:29.924Z,98005.06
2023-03-06T22:59:56.538Z,98003.22
2023-03-06T23:02:23.372Z,98003.72
2023-03-06T23:04:53.629Z,98006.78
2023-03-06T23:07:20.939Z,98010.06
2023-03-06T23:09:48.506Z,98009.09
2023-03-06T23:12:33.865Z,98003.75
2023-03-06T23:15:19.175Z,97997.91
2023-03-06T23:18:04.624Z,98002.25
2023-03-06T23:20:49.947Z,98003.34
2023-03-06T23:23:36.004Z,97994.09
2023-03-06T23:26:04.983Z,97996.94
2023-03-06T23:28:32.291Z,97996.47
2023-03-06T23:30:59.038Z,97997.28
2023-03-06T23:33:25.715Z,97995.50
2023-03-06T23:35:52.396Z,97992.91
2023-03-06T23:38:19.204Z,97991.91
2023-03-06T23:40:45.896Z,97982.69
2023-03-06T23:43:12.478Z,97982.69
2023-03-06T23:45:39.089Z,97981.41
2023-03-06T23:48:07.863Z,97974.97
2023-03-06T23:50:34.494Z,97971.31
2023-03-06T23:53:01.080Z,97966.16
2023-03-06T23:55:27.669Z,97970.78
2023-03-06T23:57:54.342Z,97973.38
